Terminal Aerodrome Forecast
Issued by NWS

Home | Current Version | Previous Version | Text Only | Print | Product List | Glossary On
Versions: 1 2 3 4 5 6 7 8 9 10 11 12 13 14 15 16 17 18 19 20 21
000
FTUS44 KLZK 282200 AAA
TAFLLQ
TAF AMD
KLLQ 282201Z 2822/2918 32005KT P6SM -SHRA VCTS SCT030 BKN060CB
      TEMPO 2822/2823 1SM +TSRA BKN025CB
     FM290000 VRB04KT P6SM SCT035 BKN050 BKN100
     FM290300 VRB02KT P6SM SCT250=

USA.gov is the U.S. government's official web portal to all federal, state and local government web resources and services.